sensor_id;sensor_type;location;lat;lon;timestamp;pressure;altitude;pressure_sealevel;temperature;humidity
11415;BME280;5763;42.714;23.244;2022-12-20T00:02:13;96362.25;;;2.84;66.09
11415;BME280;5763;42.714;23.244;2022-12-20T00:04:40;96371.28;;;2.72;66.34
11415;BME280;5763;42.714;23.244;2022-12-20T00:07:07;96375.53;;;2.73;66.31
11415;BME280;5763;42.714;23.244;2022-12-20T00:09:34;96375.25;;;2.78;65.94
11415;BME280;5763;42.714;23.244;2022-12-20T00:12:03;96391.47;;;2.78;65.92
11415;BME280;5763;42.714;23.244;2022-12-20T00:14:30;96383.53;;;2.66;66.00
11415;BME280;5763;42.714;23.244;2022-12-20T00:16:56;96377.44;;;2.69;65.79
11415;BME280;5763;42.714;23.244;2022-12-20T00:19:23;96390.09;;;2.65;66.13
11415;BME280;5763;42.714;23.244;2022-12-20T00:21:50;96380.13;;;2.69;65.70
11415;BME280;5763;42.714;23.244;2022-12-20T00:24:18;96384.44;;;2.74;65.82
11415;BME280;5763;42.714;23.244;2022-12-20T00:26:44;96396.19;;;2.81;65.25
11415;BME280;5763;42.714;23.244;2022-12-20T00:29:12;96376.06;;;2.79;65.18
11415;BME280;5763;42.714;23.244;2022-12-20T00:31:39;96376.06;;;2.79;65.55
11415;BME280;5763;42.714;23.244;2022-12-20T00:34:07;96389.28;;;2.84;64.75
11415;BME280;5763;42.714;23.244;2022-12-20T00:36:34;96377.66;;;2.83;64.62
11415;BME280;5763;42.714;23.244;2022-12-20T00:39:01;96382.38;;;2.86;64.59
11415;BME280;5763;42.714;23.244;2022-12-20T00:41:29;96385.41;;;2.85;64.50
11415;BME280;5763;42.714;23.244;2022-12-20T00:43:56;96378.53;;;2.87;64.14
11415;BME280;5763;42.714;23.244;2022-12-20T00:46:25;96379.03;;;2.74;64.09
11415;BME280;5763;42.714;23.244;2022-12-20T00:48:53;96377.13;;;2.74;64.15
11415;BME280;5763;42.714;23.244;2022-12-20T00:51:23;96376.41;;;2.77;64.12
11415;BME280;5763;42.714;23.244;2022-12-20T00:53:50;96383.75;;;2.77;64.11
11415;BME280;5763;42.714;23.244;2022-12-20T00:56:17;96384.81;;;2.72;63.51
11415;BME280;5763;42.714;23.244;2022-12-20T00:58:44;96383.66;;;2.73;63.44
11415;BME280;5763;42.714;23.244;2022-12-20T01:01:16;96379.34;;;2.69;63.28
11415;BME280;5763;42.714;23.244;2022-12-20T01:03:44;96370.38;;;2.65;62.95
11415;BME280;5763;42.714;23.244;2022-12-20T01:06:11;96381.19;;;2.65;63.17
11415;BME280;5763;42.714;23.244;2022-12-20T01:08:38;96378.47;;;2.65;63.21
11415;BME280;5763;42.714;23.244;2022-12-20T01:11:07;96373.59;;;2.70;62.99
11415;BME280;5763;42.714;23.244;2022-12-20T01:13:37;96382.84;;;2.69;62.65
11415;BME280;5763;42.714;23.244;2022-12-20T01:16:05;96373.44;;;2.63;62.81
11415;BME280;5763;42.714;23.244;2022-12-20T01:18:32;96372.03;;;2.69;62.08
11415;BME280;5763;42.714;23.244;2022-12-20T01:21:02;96363.47;;;2.67;62.40
11415;BME280;5763;42.714;23.244;2022-12-20T01:23:29;96365.75;;;2.65;62.32
11415;BME280;5763;42.714;23.244;2022-12-20T01:25:57;96355.00;;;2.69;62.45
11415;BME280;5763;42.714;23.244;2022-12-20T01:28:24;96358.38;;;2.62;62.49
11415;BME280;5763;42.714;23.244;2022-12-20T01:30:51;96356.75;;;2.58;62.38
11415;BME280;5763;42.714;23.244;2022-12-20T01:33:18;96349.91;;;2.45;62.58
11415;BME280;5763;42.714;23.244;2022-12-20T01:35:54;96349.00;;;2.37;62.96
11415;BME280;5763;42.714;23.244;2022-12-20T01:38:23;96348.88;;;2.30;63.28
11415;BME280;5763;42.714;23.244;2022-12-20T01:40:50;96354.34;;;2.34;63.33
11415;BME280;5763;42.714;23.244;2022-12-20T01:43:18;96346.47;;;2.25;63.37
11415;BME280;5763;42.714;23.244;2022-12-20T01:45:45;96344.25;;;2.31;63.44
11415;BME280;5763;42.714;23.244;2022-12-20T01:48:14;96334.16;;;2.28;63.23
11415;BME280;5763;42.714;23.244;2022-12-20T01:50:42;96342.41;;;2.16;63.19
11415;BME280;5763;42.714;23.244;2022-12-20T01:53:09;96342.13;;;2.21;63.25
11415;BME280;5763;42.714;23.244;2022-12-20T01:55:38;96344.47;;;2.22;63.22
11415;BME280;5763;42.714;23.244;2022-12-20T01:58:06;96339.34;;;2.36;62.44
11415;BME280;5763;42.714;23.244;2022-12-20T02:00:35;96333.25;;;2.39;62.47
11415;BME280;5763;42.714;23.244;2022-12-20T02:03:04;96331.25;;;2.36;62.21
11415;BME280;5763;42.714;23.244;2022-12-20T02:05:34;96339.91;;;2.26;62.31
11415;BME280;5763;42.714;23.244;2022-12-20T02:08:01;96331.75;;;2.23;62.16
11415;BME280;5763;42.714;23.244;2022-12-20T02:10:36;96323.88;;;2.14;62.41
11415;BME280;5763;42.714;23.244;2022-12-20T02:13:17;96334.44;;;2.23;62.27
11415;BME280;5763;42.714;23.244;2022-12-20T02:15:51;96332.31;;;2.13;62.42
11415;BME280;5763;42.714;23.244;2022-12-20T02:18:22;96338.41;;;2.29;62.13
11415;BME280;5763;42.714;23.244;2022-12-20T02:21:07;96332.66;;;2.11;62.36
11415;BME280;5763;42.714;23.244;2022-12-20T02:24:25;96330.13;;;2.18;62.20
11415;BME280;5763;42.714;23.244;2022-12-20T02:30:10;96330.59;;;2.24;62.04
11415;BME280;5763;42.714;23.244;2022-12-20T02:32:41;96333.25;;;2.20;62.15
11415;BME280;5763;42.714;23.244;2022-12-20T02:35:12;96352.34;;;2.12;62.87
11415;BME280;5763;42.714;23.244;2022-12-20T02:37:50;96337.03;;;2.16;62.49
11415;BME280;5763;42.714;23.244;2022-12-20T02:40:20;96317.91;;;2.05;62.77
11415;BME280;5763;42.714;23.244;2022-12-20T02:42:49;96324.16;;;2.09;62.93
11415;BME280;5763;42.714;23.244;2022-12-20T02:45:21;96320.88;;;2.19;62.74
11415;BME280;5763;42.714;23.244;2022-12-20T02:47:50;96326.34;;;2.23;62.29
11415;BME280;5763;42.714;23.244;2022-12-20T02:50:21;96336.63;;;2.17;62.56
11415;BME280;5763;42.714;23.244;2022-12-20T02:52:50;96311.50;;;2.13;62.64
11415;BME280;5763;42.714;23.244;2022-12-20T02:55:17;96319.16;;;2.11;62.83
11415;BME280;5763;42.714;23.244;2022-12-20T02:57:51;96309.97;;;2.12;62.84
11415;BME280;5763;42.714;23.244;2022-12-20T03:00:23;96317.03;;;2.20;62.49
11415;BME280;5763;42.714;23.244;2022-12-20T03:02:51;96306.31;;;2.24;62.39
11415;BME280;5763;42.714;23.244;2022-12-20T03:05:42;96300.22;;;2.08;63.00
11415;BME280;5763;42.714;23.244;2022-12-20T03:08:10;96299.28;;;2.19;62.66
11415;BME280;5763;42.714;23.244;2022-12-20T03:10:37;96298.44;;;2.15;62.93
11415;BME280;5763;42.714;23.244;2022-12-20T03:13:03;96299.91;;;2.13;62.88
11415;BME280;5763;42.714;23.244;2022-12-20T03:15:32;96303.53;;;2.01;63.33
11415;BME280;5763;42.714;23.244;2022-12-20T03:17:58;96292.47;;;1.87;63.69
11415;BME280;5763;42.714;23.244;2022-12-20T03:20:25;96300.78;;;1.98;63.46
11415;BME280;5763;42.714;23.244;2022-12-20T03:22:52;96303.19;;;2.03;63.18
11415;BME280;5763;42.714;23.244;2022-12-20T03:25:19;96298.31;;;2.08;63.20
11415;BME280;5763;42.714;23.244;2022-12-20T03:27:45;96304.97;;;2.14;62.88
11415;BME280;5763;42.714;23.244;2022-12-20T03:32:41;96293.75;;;2.12;62.50
11415;BME280;5763;42.714;23.244;2022-12-20T03:35:09;96293.03;;;2.15;62.34
11415;BME280;5763;42.714;23.244;2022-12-20T03:37:35;96295.59;;;2.08;62.54
11415;BME280;5763;42.714;23.244;2022-12-20T03:40:03;96295.09;;;2.03;62.67
11415;BME280;5763;42.714;23.244;2022-12-20T03:42:30;96297.88;;;1.87;63.06
11415;BME280;5763;42.714;23.244;2022-12-20T03:44:57;96288.56;;;1.85;62.87
11415;BME280;5763;42.714;23.244;2022-12-20T03:47:24;96281.53;;;1.80;62.99
11415;BME280;5763;42.714;23.244;2022-12-20T03:49:52;96287.00;;;1.84;63.00
11415;BME280;5763;42.714;23.244;2022-12-20T03:52:19;96285.50;;;1.86;63.07
11415;BME280;5763;42.714;23.244;2022-12-20T03:54:45;96291.75;;;1.90;62.57
11415;BME280;5763;42.714;23.244;2022-12-20T03:57:12;96284.09;;;1.73;63.22
11415;BME280;5763;42.714;23.244;2022-12-20T03:59:39;96293.03;;;1.77;62.92
11415;BME280;5763;42.714;23.244;2022-12-20T04:02:06;96295.47;;;1.82;63.04
11415;BME280;5763;42.714;23.244;2022-12-20T04:04:32;96298.16;;;1.82;62.85
11415;BME280;5763;42.714;23.244;2022-12-20T04:07:00;96301.63;;;1.83;63.08
11415;BME280;5763;42.714;23.244;2022-12-20T04:09:27;96300.75;;;1.79;62.89
11415;BME280;5763;42.714;23.244;2022-12-20T04:11:54;96298.06;;;1.79;62.72
11415;BME280;5763;42.714;23.244;2022-12-20T04:14:21;96294.66;;;1.82;63.05
11415;BME280;5763;42.714;23.244;2022-12-20T04:16:48;96295.09;;;1.84;62.86
11415;BME280;5763;42.714;23.244;2022-12-20T04:19:14;96261.63;;;1.50;62.85
11415;BME280;5763;42.714;23.244;2022-12-20T04:21:41;96289.13;;;1.75;62.86
11415;BME280;5763;42.714;23.244;2022-12-20T04:24:10;96295.81;;;1.81;62.64
11415;BME280;5763;42.714;23.244;2022-12-20T04:26:36;96294.94;;;1.77;62.70
11415;BME280;5763;42.714;23.244;2022-12-20T04:29:03;96287.38;;;1.82;62.65
11415;BME280;5763;42.714;23.244;2022-12-20T04:31:30;96283.56;;;1.68;63.00
11415;BME280;5763;42.714;23.244;2022-12-20T04:33:57;96283.38;;;1.76;62.86
11415;BME280;5763;42.714;23.244;2022-12-20T04:36:24;96282.72;;;1.83;63.23
11415;BME280;5763;42.714;23.244;2022-12-20T04:38:50;96277.41;;;1.86;62.65
11415;BME280;5763;42.714;23.244;2022-12-20T04:41:19;96274.16;;;1.77;62.82
11415;BME280;5763;42.714;23.244;2022-12-20T04:43:49;96270.94;;;1.72;62.95
11415;BME280;5763;42.714;23.244;2022-12-20T04:46:17;96279.09;;;1.75;62.84
11415;BME280;5763;42.714;23.244;2022-12-20T04:48:44;96278.09;;;1.64;62.87
11415;BME280;5763;42.714;23.244;2022-12-20T04:51:11;96284.06;;;1.54;63.32
11415;BME280;5763;42.714;23.244;2022-12-20T04:53:37;96279.53;;;1.58;63.35
11415;BME280;5763;42.714;23.244;2022-12-20T04:56:13;96278.84;;;1.61;63.45
11415;BME280;5763;42.714;23.244;2022-12-20T04:58:43;96270.28;;;1.59;63.50
11415;BME280;5763;42.714;23.244;2022-12-20T05:01:10;96267.31;;;1.64;63.33
11415;BME280;5763;42.714;23.244;2022-12-20T05:03:37;96274.56;;;1.60;63.13
11415;BME280;5763;42.714;23.244;2022-12-20T05:06:04;96265.19;;;1.54;63.32
11415;BME280;5763;42.714;23.244;2022-12-20T05:08:32;96272.13;;;1.55;63.49
11415;BME280;5763;42.714;23.244;2022-12-20T05:10:59;96271.63;;;1.50;63.68
11415;BME280;5763;42.714;23.244;2022-12-20T05:13:26;96276.31;;;1.53;63.47
11415;BME280;5763;42.714;23.244;2022-12-20T05:15:55;96270.84;;;1.49;63.60
11415;BME280;5763;42.714;23.244;2022-12-20T05:18:24;96283.44;;;1.61;63.32
11415;BME280;5763;42.714;23.244;2022-12-20T05:20:54;96280.16;;;1.52;63.50
11415;BME280;5763;42.714;23.244;2022-12-20T05:23:34;96277.72;;;1.47;63.66
11415;BME280;5763;42.714;23.244;2022-12-20T05:26:19;96282.50;;;1.53;63.05
11415;BME280;5763;42.714;23.244;2022-12-20T05:28:47;96281.72;;;1.53;63.13
11415;BME280;5763;42.714;23.244;2022-12-20T05:31:15;96281.81;;;1.56;63.11
11415;BME280;5763;42.714;23.244;2022-12-20T05:33:41;96280.22;;;1.55;63.39
11415;BME280;5763;42.714;23.244;2022-12-20T05:36:08;96290.19;;;1.51;63.13
11415;BME280;5763;42.714;23.244;2022-12-20T05:38:35;96290.19;;;1.51;63.27
11415;BME280;5763;42.714;23.244;2022-12-20T05:41:02;96287.75;;;1.46;63.39
11415;BME280;5763;42.714;23.244;2022-12-20T05:43:31;96284.34;;;1.49;63.48
11415;BME280;5763;42.714;23.244;2022-12-20T05:45:58;96288.75;;;1.57;63.39
11415;BME280;5763;42.714;23.244;2022-12-20T05:48:26;96285.13;;;1.50;63.25
11415;BME280;5763;42.714;23.244;2022-12-20T05:50:53;96291.47;;;1.57;62.93
11415;BME280;5763;42.714;23.244;2022-12-20T05:53:20;96293.28;;;1.53;63.15
11415;BME280;5763;42.714;23.244;2022-12-20T05:55:48;96292.06;;;1.51;62.99
11415;BME280;5763;42.714;23.244;2022-12-20T05:58:15;96280.22;;;1.55;63.26
11415;BME280;5763;42.714;23.244;2022-12-20T06:00:43;96287.63;;;1.58;62.87
11415;BME280;5763;42.714;23.244;2022-12-20T06:03:12;96286.41;;;1.56;63.03
11415;BME280;5763;42.714;23.244;2022-12-20T06:05:40;96292.22;;;1.58;62.94
11415;BME280;5763;42.714;23.244;2022-12-20T06:08:09;96290.31;;;1.58;62.85
11415;BME280;5763;42.714;23.244;2022-12-20T06:10:37;96288.69;;;1.54;63.22
11415;BME280;5763;42.714;23.244;2022-12-20T06:13:05;96284.00;;;1.51;63.28
11415;BME280;5763;42.714;23.244;2022-12-20T06:15:31;96249.97;;;1.27;63.43
11415;BME280;5763;42.714;23.244;2022-12-20T06:17:58;96293.53;;;1.64;63.30
11415;BME280;5763;42.714;23.244;2022-12-20T06:20:25;96289.69;;;1.65;62.62
11415;BME280;5763;42.714;23.244;2022-12-20T06:22:53;96297.94;;;1.72;62.84
11415;BME280;5763;42.714;23.244;2022-12-20T06:25:20;96296.44;;;1.74;62.63
11415;BME280;5763;42.714;23.244;2022-12-20T06:27:47;96291.91;;;1.78;62.54
11415;BME280;5763;42.714;23.244;2022-12-20T06:30:15;96292.19;;;1.73;62.88
11415;BME280;5763;42.714;23.244;2022-12-20T06:32:42;96292.59;;;1.75;62.94
11415;BME280;5763;42.714;23.244;2022-12-20T06:35:09;96284.56;;;1.79;62.88
11415;BME280;5763;42.714;23.244;2022-12-20T06:37:35;96289.97;;;1.79;62.92
11415;BME280;5763;42.714;23.244;2022-12-20T06:40:08;96287.19;;;1.75;63.09
11415;BME280;5763;42.714;23.244;2022-12-20T06:42:35;96284.50;;;1.75;62.67
11415;BME280;5763;42.714;23.244;2022-12-20T06:45:02;96280.25;;;1.74;62.63
11415;BME280;5763;42.714;23.244;2022-12-20T06:47:29;96280.03;;;1.83;62.53
11415;BME280;5763;42.714;23.244;2022-12-20T06:49:56;96286.91;;;1.80;62.55
11415;BME280;5763;42.714;23.244;2022-12-20T06:52:23;96270.09;;;1.87;62.15
11415;BME280;5763;42.714;23.244;2022-12-20T06:54:50;96274.00;;;2.08;61.81
11415;BME280;5763;42.714;23.244;2022-12-20T06:57:18;96275.34;;;2.18;61.63
11415;BME280;5763;42.714;23.244;2022-12-20T06:59:45;96275.16;;;2.30;61.27
11415;BME280;5763;42.714;23.244;2022-12-20T07:02:12;96263.56;;;2.48;60.54
11415;BME280;5763;42.714;23.244;2022-12-20T07:04:39;96262.66;;;2.63;59.17
11415;BME280;5763;42.714;23.244;2022-12-20T07:07:06;96272.69;;;2.63;59.42
11415;BME280;5763;42.714;23.244;2022-12-20T07:09:33;96260.63;;;2.79;58.70
11415;BME280;5763;42.714;23.244;2022-12-20T07:12:02;96258.31;;;3.04;57.82
11415;BME280;5763;42.714;23.244;2022-12-20T07:14:30;96270.94;;;3.22;57.33
11415;BME280;5763;42.714;23.244;2022-12-20T07:16:57;96270.69;;;3.31;57.03
11415;BME280;5763;42.714;23.244;2022-12-20T07:19:24;96265.13;;;3.46;57.07
11415;BME280;5763;42.714;23.244;2022-12-20T07:21:51;96264.00;;;3.51;56.37
11415;BME280;5763;42.714;23.244;2022-12-20T07:24:17;96262.66;;;3.64;55.85
11415;BME280;5763;42.714;23.244;2022-12-20T07:26:44;96264.66;;;3.70;55.06
11415;BME280;5763;42.714;23.244;2022-12-20T07:29:11;96264.53;;;3.89;54.02
11415;BME280;5763;42.714;23.244;2022-12-20T07:31:39;96268.72;;;3.83;53.69
11415;BME280;5763;42.714;23.244;2022-12-20T07:34:06;96268.38;;;3.88;53.83
11415;BME280;5763;42.714;23.244;2022-12-20T07:36:32;96268.50;;;3.99;53.19
11415;BME280;5763;42.714;23.244;2022-12-20T07:38:59;96277.63;;;4.17;52.71
11415;BME280;5763;42.714;23.244;2022-12-20T07:41:26;96270.03;;;4.29;52.74
11415;BME280;5763;42.714;23.244;2022-12-20T07:43:53;96272.66;;;4.59;52.07
11415;BME280;5763;42.714;23.244;2022-12-20T07:46:22;96273.53;;;4.70;51.52
11415;BME280;5763;42.714;23.244;2022-12-20T07:48:50;96264.63;;;4.69;51.87
11415;BME280;5763;42.714;23.244;2022-12-20T07:51:20;96260.00;;;4.73;50.94
11415;BME280;5763;42.714;23.244;2022-12-20T07:53:52;96252.69;;;4.77;50.85
11415;BME280;5763;42.714;23.244;2022-12-20T07:56:21;96253.13;;;4.83;50.64
11415;BME280;5763;42.714;23.244;2022-12-20T07:58:49;96258.34;;;5.05;49.72
11415;BME280;5763;42.714;23.244;2022-12-20T08:01:19;96259.94;;;5.10;50.48
11415;BME280;5763;42.714;23.244;2022-12-20T08:03:48;96245.34;;;5.32;50.29
11415;BME280;5763;42.714;23.244;2022-12-20T08:06:18;96245.47;;;5.49;50.13
11415;BME280;5763;42.714;23.244;2022-12-20T08:08:47;96245.09;;;5.54;48.18
11415;BME280;5763;42.714;23.244;2022-12-20T08:11:16;96245.75;;;5.98;47.75
11415;BME280;5763;42.714;23.244;2022-12-20T08:13:44;96239.53;;;5.94;47.49
11415;BME280;5763;42.714;23.244;2022-12-20T08:16:11;96239.22;;;6.20;45.88
11415;BME280;5763;42.714;23.244;2022-12-20T08:18:37;96237.31;;;6.31;45.35
11415;BME280;5763;42.714;23.244;2022-12-20T08:21:04;96230.34;;;6.30;46.92
11415;BME280;5763;42.714;23.244;2022-12-20T08:23:33;96225.34;;;6.53;45.95
11415;BME280;5763;42.714;23.244;2022-12-20T08:26:00;96219.53;;;6.90;45.31
11415;BME280;5763;42.714;23.244;2022-12-20T08:28:27;96219.53;;;7.07;44.69
11415;BME280;5763;42.714;23.244;2022-12-20T08:30:59;96222.63;;;7.30;42.67
11415;BME280;5763;42.714;23.244;2022-12-20T08:33:26;96218.72;;;7.35;42.68
11415;BME280;5763;42.714;23.244;2022-12-20T08:35:56;96223.00;;;7.50;41.79
11415;BME280;5763;42.714;23.244;2022-12-20T08:38:25;96218.22;;;7.85;41.12
11415;BME280;5763;42.714;23.244;2022-12-20T08:40:53;96195.19;;;8.00;39.93
11415;BME280;5763;42.714;23.244;2022-12-20T08:43:20;96215.34;;;8.27;40.04
11415;BME280;5763;42.714;23.244;2022-12-20T08:45:51;96210.50;;;8.56;40.20
11415;BME280;5763;42.714;23.244;2022-12-20T08:48:18;96210.38;;;8.77;40.16
11415;BME280;5763;42.714;23.244;2022-12-20T08:50:45;96219.72;;;8.79;40.13
11415;BME280;5763;42.714;23.244;2022-12-20T08:53:12;96208.28;;;8.91;39.83
11415;BME280;5763;42.714;23.244;2022-12-20T08:55:39;96205.47;;;9.05;39.56
11415;BME280;5763;42.714;23.244;2022-12-20T08:58:07;96203.78;;;9.18;38.78
11415;BME280;5763;42.714;23.244;2022-12-20T09:00:35;96201.03;;;9.18;38.78
11415;BME280;5763;42.714;23.244;2022-12-20T09:03:02;96196.09;;;9.06;38.76
11415;BME280;5763;42.714;23.244;2022-12-20T09:05:29;96199.50;;;9.17;38.45
11415;BME280;5763;42.714;23.244;2022-12-20T09:07:55;96181.03;;;9.32;37.33
11415;BME280;5763;42.714;23.244;2022-12-20T09:10:22;96193.03;;;9.41;37.06
11415;BME280;5763;42.714;23.244;2022-12-20T09:12:49;96184.38;;;9.83;36.10
11415;BME280;5763;42.714;23.244;2022-12-20T09:15:17;96179.75;;;10.14;35.58
11415;BME280;5763;42.714;23.244;2022-12-20T09:17:44;96176.91;;;10.21;34.84
11415;BME280;5763;42.714;23.244;2022-12-20T09:20:12;96170.66;;;10.20;35.10
11415;BME280;5763;42.714;23.244;2022-12-20T09:22:40;96170.59;;;10.27;35.41
11415;BME280;5763;42.714;23.244;2022-12-20T09:25:08;96165.28;;;10.13;35.64
11415;BME280;5763;42.714;23.244;2022-12-20T09:27:36;96160.47;;;9.91;36.01
11415;BME280;5763;42.714;23.244;2022-12-20T09:30:05;96168.44;;;9.78;36.96
11415;BME280;5763;42.714;23.244;2022-12-20T09:32:36;96154.75;;;9.78;34.79
11415;BME280;5763;42.714;23.244;2022-12-20T09:35:05;96156.72;;;10.11;34.23
11415;BME280;5763;42.714;23.244;2022-12-20T09:37:32;96143.28;;;9.90;34.44
11415;BME280;5763;42.714;23.244;2022-12-20T09:40:00;96143.41;;;9.80;34.56
11415;BME280;5763;42.714;23.244;2022-12-20T09:42:28;96139.72;;;9.93;34.25
11415;BME280;5763;42.714;23.244;2022-12-20T09:45:04;96149.00;;;10.33;34.31
11415;BME280;5763;42.714;23.244;2022-12-20T09:47:36;96126.34;;;10.02;34.61
11415;BME280;5763;42.714;23.244;2022-12-20T09:50:05;96133.63;;;10.42;34.25
11415;BME280;5763;42.714;23.244;2022-12-20T09:53:04;96131.84;;;10.55;33.52
11415;BME280;5763;42.714;23.244;2022-12-20T09:55:41;96122.44;;;10.56;33.21
11415;BME280;5763;42.714;23.244;2022-12-20T09:58:34;96129.97;;;10.52;33.20
11415;BME280;5763;42.714;23.244;2022-12-20T10:01:14;96118.31;;;10.94;32.33
11415;BME280;5763;42.714;23.244;2022-12-20T10:03:44;96105.34;;;10.98;32.84
11415;BME280;5763;42.714;23.244;2022-12-20T10:06:21;96099.13;;;10.71;33.22
11415;BME280;5763;42.714;23.244;2022-12-20T10:08:55;96096.50;;;10.87;32.70
11415;BME280;5763;42.714;23.244;2022-12-20T10:11:38;96091.66;;;10.98;32.55
11415;BME280;5763;42.714;23.244;2022-12-20T10:14:15;96084.59;;;11.20;31.72
11415;BME280;5763;42.714;23.244;2022-12-20T10:16:45;96076.53;;;11.52;31.04
11415;BME280;5763;42.714;23.244;2022-12-20T10:22:16;96063.88;;;11.19;30.81
11415;BME280;5763;42.714;23.244;2022-12-20T10:24:52;96054.22;;;11.11;31.94
11415;BME280;5763;42.714;23.244;2022-12-20T10:27:23;96040.75;;;11.40;31.75
11415;BME280;5763;42.714;23.244;2022-12-20T10:29:51;96044.56;;;12.01;31.39
11415;BME280;5763;42.714;23.244;2022-12-20T10:32:20;96035.72;;;12.45;30.13
11415;BME280;5763;42.714;23.244;2022-12-20T10:34:56;96031.50;;;12.56;29.66
11415;BME280;5763;42.714;23.244;2022-12-20T10:37:23;96031.16;;;12.38;29.57
11415;BME280;5763;42.714;23.244;2022-12-20T10:39:51;96025.16;;;12.59;28.04
11415;BME280;5763;42.714;23.244;2022-12-20T10:42:28;96017.34;;;12.58;28.25
11415;BME280;5763;42.714;23.244;2022-12-20T10:44:57;96015.19;;;12.65;28.92
11415;BME280;5763;42.714;23.244;2022-12-20T10:47:34;96009.06;;;12.74;28.67
11415;BME280;5763;42.714;23.244;2022-12-20T10:50:24;95998.03;;;12.77;27.93
11415;BME280;5763;42.714;23.244;2022-12-20T10:53:15;96001.91;;;12.32;28.75
11415;BME280;5763;42.714;23.244;2022-12-20T10:55:44;96001.38;;;12.05;29.16
11415;BME280;5763;42.714;23.244;2022-12-20T10:58:14;96000.44;;;12.11;28.91
11415;BME280;5763;42.714;23.244;2022-12-20T11:00:41;96000.34;;;12.15;28.77
11415;BME280;5763;42.714;23.244;2022-12-20T11:03:16;95997.78;;;12.56;28.70
11415;BME280;5763;42.714;23.244;2022-12-20T11:05:56;95988.13;;;12.96;27.86
11415;BME280;5763;42.714;23.244;2022-12-20T11:08:25;95985.59;;;13.30;26.86
11415;BME280;5763;42.714;23.244;2022-12-20T11:11:10;95989.34;;;13.89;26.51
11415;BME280;5763;42.714;23.244;2022-12-20T11:13:39;95980.13;;;14.21;26.04
11415;BME280;5763;42.714;23.244;2022-12-20T11:16:22;95979.31;;;14.45;25.59
11415;BME280;5763;42.714;23.244;2022-12-20T11:18:59;95976.41;;;15.29;24.39
11415;BME280;5763;42.714;23.244;2022-12-20T11:21:39;95973.13;;;15.86;23.33
11415;BME280;5763;42.714;23.244;2022-12-20T11:24:13;95970.06;;;15.93;22.90
11415;BME280;5763;42.714;23.244;2022-12-20T11:26:57;95964.06;;;16.25;22.96
11415;BME280;5763;42.714;23.244;2022-12-20T11:29:44;95945.78;;;17.67;21.37
11415;BME280;5763;42.714;23.244;2022-12-20T11:32:25;95938.34;;;19.03;20.04
11415;BME280;5763;42.714;23.244;2022-12-20T11:35:02;95947.06;;;19.63;19.21
11415;BME280;5763;42.714;23.244;2022-12-20T11:37:43;95944.94;;;19.29;18.94
11415;BME280;5763;42.714;23.244;2022-12-20T11:40:26;95941.78;;;18.74;20.11
11415;BME280;5763;42.714;23.244;2022-12-20T11:43:19;95925.50;;;17.52;20.51
11415;BME280;5763;42.714;23.244;2022-12-20T11:46:07;95926.09;;;17.65;20.32
11415;BME280;5763;42.714;23.244;2022-12-20T11:49:03;95923.31;;;17.65;20.40
11415;BME280;5763;42.714;23.244;2022-12-20T11:51:42;95929.84;;;16.98;21.44
11415;BME280;5763;42.714;23.244;2022-12-20T11:54:18;95923.97;;;16.03;22.66
11415;BME280;5763;42.714;23.244;2022-12-20T11:56:51;95931.88;;;16.31;22.29
11415;BME280;5763;42.714;23.244;2022-12-20T11:59:30;95925.22;;;17.04;22.04
11415;BME280;5763;42.714;23.244;2022-12-20T12:02:03;95921.03;;;18.84;20.37
11415;BME280;5763;42.714;23.244;2022-12-20T12:04:36;95925.84;;;20.38;18.69
11415;BME280;5763;42.714;23.244;2022-12-20T12:07:10;95916.63;;;21.46;17.14
11415;BME280;5763;42.714;23.244;2022-12-20T12:09:47;95915.38;;;22.04;17.11
11415;BME280;5763;42.714;23.244;2022-12-20T12:12:22;95907.09;;;21.84;17.25
11415;BME280;5763;42.714;23.244;2022-12-20T12:14:57;95903.91;;;22.64;16.72
11415;BME280;5763;42.714;23.244;2022-12-20T12:17:31;95906.13;;;23.82;15.66
11415;BME280;5763;42.714;23.244;2022-12-20T12:20:19;95910.13;;;23.48;15.52
11415;BME280;5763;42.714;23.244;2022-12-20T12:22:52;95902.09;;;23.03;15.89
11415;BME280;5763;42.714;23.244;2022-12-20T12:25:23;95905.06;;;23.52;15.40
11415;BME280;5763;42.714;23.244;2022-12-20T12:27:51;95895.00;;;22.60;16.20
11415;BME280;5763;42.714;23.244;2022-12-20T12:30:19;95895.97;;;22.15;16.31
11415;BME280;5763;42.714;23.244;2022-12-20T12:32:51;95896.38;;;22.39;16.34
11415;BME280;5763;42.714;23.244;2022-12-20T12:35:43;95893.88;;;22.88;16.01
11415;BME280;5763;42.714;23.244;2022-12-20T12:38:32;95888.31;;;23.85;15.11
11415;BME280;5763;42.714;23.244;2022-12-20T12:41:26;95884.34;;;23.11;15.34
11415;BME280;5763;42.714;23.244;2022-12-20T12:44:01;95894.47;;;24.06;14.72
11415;BME280;5763;42.714;23.244;2022-12-20T12:46:47;95887.28;;;23.61;15.02
11415;BME280;5763;42.714;23.244;2022-12-20T12:49:20;95886.78;;;24.34;14.59
11415;BME280;5763;42.714;23.244;2022-12-20T12:51:50;95888.59;;;23.76;14.61
11415;BME280;5763;42.714;23.244;2022-12-20T12:54:21;95879.09;;;23.30;15.05
11415;BME280;5763;42.714;23.244;2022-12-20T12:56:51;95882.56;;;23.14;15.37
11415;BME280;5763;42.714;23.244;2022-12-20T13:02:33;95871.44;;;22.24;15.69
11415;BME280;5763;42.714;23.244;2022-12-20T13:05:29;95868.56;;;21.51;16.17
11415;BME280;5763;42.714;23.244;2022-12-20T13:07:57;95866.09;;;20.68;17.02
11415;BME280;5763;42.714;23.244;2022-12-20T13:10:57;95866.28;;;20.10;17.67
11415;BME280;5763;42.714;23.244;2022-12-20T13:13:27;95862.03;;;19.51;18.26
11415;BME280;5763;42.714;23.244;2022-12-20T13:19:14;95858.03;;;18.14;19.07
11415;BME280;5763;42.714;23.244;2022-12-20T13:21:44;95854.94;;;17.47;20.14
11415;BME280;5763;42.714;23.244;2022-12-20T13:24:52;95876.75;;;16.28;21.42
11415;BME280;5763;42.714;23.244;2022-12-20T13:27:32;95868.38;;;15.52;22.13
11415;BME280;5763;42.714;23.244;2022-12-20T13:30:24;95866.03;;;15.42;22.47
11415;BME280;5763;42.714;23.244;2022-12-20T13:33:17;95851.06;;;15.30;22.80
11415;BME280;5763;42.714;23.244;2022-12-20T13:36:02;95855.16;;;14.95;22.57
11415;BME280;5763;42.714;23.244;2022-12-20T13:38:40;95848.88;;;14.73;23.50
11415;BME280;5763;42.714;23.244;2022-12-20T13:41:30;95834.44;;;14.14;23.42
11415;BME280;5763;42.714;23.244;2022-12-20T13:44:08;95838.69;;;13.56;24.56